createdAt,value
2022-11-23T00:00:39.909Z,1.23
2022-11-23T00:03:06.472Z,0.90
2022-11-23T00:05:34.449Z,1.20
2022-11-23T00:08:02.055Z,1.20
2022-11-23T00:10:29.032Z,0.83
2022-11-23T00:12:56.063Z,1.00
2022-11-23T00:15:23.051Z,1.10
2022-11-23T00:17:49.659Z,1.03
2022-11-23T00:20:16.904Z,0.97
2022-11-23T00:22:43.907Z,1.47
2022-11-23T00:25:10.681Z,1.33
2022-11-23T00:27:37.709Z,0.90
2022-11-23T00:30:05.213Z,1.07
2022-11-23T00:32:32.233Z,0.97
2022-11-23T00:34:58.847Z,1.07
2022-11-23T00:37:25.502Z,1.60
2022-11-23T00:39:52.075Z,1.00
2022-11-23T00:42:18.723Z,1.00
2022-11-23T00:44:45.298Z,1.03
2022-11-23T00:47:11.968Z,1.17
2022-11-23T00:49:38.556Z,1.00
2022-11-23T00:52:05.129Z,0.90
2022-11-23T00:54:32.215Z,1.17
2022-11-23T00:56:58.765Z,1.00
2022-11-23T00:59:25.410Z,1.23
2022-11-23T01:01:52.585Z,1.00
2022-11-23T01:04:19.273Z,1.23
2022-11-23T01:06:45.836Z,1.00
2022-11-23T01:09:17.716Z,1.37
2022-11-23T01:11:45.075Z,1.17
2022-11-23T01:14:12.247Z,1.10
2022-11-23T01:16:40.355Z,1.27
2022-11-23T01:19:10.627Z,1.40
2022-11-23T01:21:38.096Z,1.23
2022-11-23T01:24:14.168Z,1.23
2022-11-23T01:26:41.497Z,1.03
2022-11-23T01:29:08.465Z,1.00
2022-11-23T01:31:35.471Z,1.57
2022-11-23T01:34:03.993Z,1.53
2022-11-23T01:36:33.054Z,1.50
2022-11-23T01:39:01.637Z,1.30
2022-11-23T01:41:32.815Z,1.20
2022-11-23T01:43:59.654Z,1.23
2022-11-23T01:46:26.456Z,1.03
2022-11-23T01:49:07.513Z,1.10
2022-11-23T01:51:38.685Z,1.43
2022-11-23T01:54:10.621Z,1.70
2022-11-23T01:56:41.508Z,1.63
2022-11-23T01:59:13.108Z,1.17
2022-11-23T02:01:39.713Z,1.10
2022-11-23T02:04:08.774Z,1.20
2022-11-23T02:06:35.588Z,1.30
2022-11-23T02:09:02.518Z,1.80
2022-11-23T02:11:29.171Z,1.40
2022-11-23T02:13:57.064Z,1.20
2022-11-23T02:16:23.825Z,0.90
2022-11-23T02:18:52.009Z,0.90
2022-11-23T02:21:18.792Z,1.40
2022-11-23T02:24:01.631Z,1.77
2022-11-23T02:26:30.627Z,1.07
2022-11-23T02:29:02.989Z,1.30
2022-11-23T02:31:29.844Z,0.90
2022-11-23T02:33:56.883Z,1.30
2022-11-23T02:36:46.438Z,1.67
2022-11-23T02:39:20.812Z,1.00
2022-11-23T02:41:52.680Z,1.30
2022-11-23T02:44:46.196Z,1.00
2022-11-23T02:47:12.817Z,1.47
2022-11-23T02:49:41.418Z,1.40
2022-11-23T02:52:09.236Z,1.03
2022-11-23T02:54:35.879Z,1.20
2022-11-23T02:57:02.933Z,1.10
2022-11-23T02:59:32.593Z,1.10
2022-11-23T03:02:00.043Z,1.67
2022-11-23T03:04:28.044Z,1.00
2022-11-23T03:06:55.232Z,1.57
2022-11-23T03:09:21.926Z,0.80
2022-11-23T03:11:48.560Z,1.00
2022-11-23T03:14:16.272Z,1.30
2022-11-23T03:16:43.296Z,1.20
2022-11-23T03:19:09.889Z,1.00
2022-11-23T03:21:37.114Z,1.03
2022-11-23T03:24:04.257Z,1.10
2022-11-23T03:26:30.815Z,1.27
2022-11-23T03:28:57.352Z,1.10
2022-11-23T03:31:24.348Z,0.90
2022-11-23T03:33:51.376Z,0.90
2022-11-23T03:36:18.366Z,1.17
2022-11-23T03:38:45.496Z,1.90
2022-11-23T03:41:12.467Z,1.03
2022-11-23T03:43:39.462Z,1.00
2022-11-23T03:46:06.011Z,1.10
2022-11-23T03:48:33.013Z,1.20
2022-11-23T03:51:00.007Z,1.33
2022-11-23T03:53:26.735Z,1.17
2022-11-23T03:55:56.184Z,1.03
2022-11-23T03:58:23.222Z,0.90
2022-11-23T04:00:50.492Z,1.50
2022-11-23T04:03:17.433Z,1.40
2022-11-23T04:05:44.032Z,1.23
2022-11-23T04:08:10.709Z,1.70
2022-11-23T04:10:37.259Z,1.20
2022-11-23T04:13:03.909Z,1.40
2022-11-23T04:15:30.477Z,1.30
2022-11-23T04:17:57.089Z,1.33
2022-11-23T04:20:23.678Z,1.03
2022-11-23T04:22:50.312Z,1.13
2022-11-23T04:25:16.989Z,1.50
2022-11-23T04:27:43.571Z,1.03
2022-11-23T04:30:10.701Z,1.23
2022-11-23T04:32:37.403Z,1.10
2022-11-23T04:35:04.518Z,0.90
2022-11-23T04:37:31.090Z,1.50
2022-11-23T04:39:57.878Z,1.00
2022-11-23T04:42:24.430Z,1.50
2022-11-23T04:44:51.043Z,1.13
2022-11-23T04:47:17.696Z,1.10
2022-11-23T04:49:44.352Z,1.40
2022-11-23T04:52:10.999Z,0.90
2022-11-23T04:54:37.633Z,1.30
2022-11-23T04:57:04.719Z,1.27
2022-11-23T04:59:31.546Z,1.00
2022-11-23T05:01:58.768Z,1.40
2022-11-23T05:04:25.800Z,1.10
2022-11-23T05:06:52.355Z,1.57
2022-11-23T05:09:19.219Z,1.43
2022-11-23T05:11:45.894Z,1.00
2022-11-23T05:14:12.481Z,1.30
2022-11-23T05:16:39.046Z,1.03
2022-11-23T05:19:05.639Z,1.27
2022-11-23T05:21:32.221Z,1.10
2022-11-23T05:23:59.235Z,1.40
2022-11-23T05:26:25.898Z,1.30
2022-11-23T05:28:52.485Z,1.13
2022-11-23T05:31:19.484Z,1.40
2022-11-23T05:33:46.264Z,1.30
2022-11-23T05:36:15.791Z,1.67
2022-11-23T05:38:42.701Z,1.40
2022-11-23T05:41:09.436Z,1.47
2022-11-23T05:43:35.998Z,1.40
2022-11-23T05:46:02.907Z,1.50
2022-11-23T05:48:29.657Z,1.20
2022-11-23T05:50:58.604Z,0.90
2022-11-23T05:53:29.073Z,1.30
2022-11-23T05:56:00.246Z,1.20
2022-11-23T05:58:26.848Z,1.10
2022-11-23T06:00:58.690Z,0.90
2022-11-23T06:03:25.296Z,0.90
2022-11-23T06:05:52.164Z,1.20
2022-11-23T06:08:18.736Z,1.30
2022-11-23T06:10:45.356Z,0.90
2022-11-23T06:13:12.352Z,1.30
2022-11-23T06:15:38.932Z,1.23
2022-11-23T06:18:05.574Z,1.20
2022-11-23T06:20:32.195Z,1.23
2022-11-23T06:22:59.279Z,0.97
2022-11-23T06:25:25.847Z,1.17
2022-11-23T06:27:56.980Z,1.60
2022-11-23T06:30:24.505Z,1.00
2022-11-23T06:32:51.447Z,1.00
2022-11-23T06:35:18.544Z,0.90
2022-11-23T06:37:45.732Z,1.13
2022-11-23T06:40:12.826Z,1.17
2022-11-23T06:42:40.374Z,1.00
2022-11-23T06:45:08.210Z,1.10
2022-11-23T06:47:35.169Z,1.40
2022-11-23T06:50:01.796Z,1.30
2022-11-23T06:52:28.595Z,1.30
2022-11-23T06:54:55.174Z,1.40
2022-11-23T06:57:21.730Z,1.53
2022-11-23T06:59:48.361Z,1.47
2022-11-23T07:02:15.036Z,1.80
2022-11-23T07:04:42.117Z,1.87
2022-11-23T07:07:09.710Z,1.40
2022-11-23T07:09:36.405Z,1.57
2022-11-23T07:12:03.668Z,1.87
2022-11-23T07:14:30.287Z,2.03
2022-11-23T07:16:57.290Z,1.70
2022-11-23T07:19:24.326Z,1.77
2022-11-23T07:21:50.889Z,2.50
2022-11-23T07:24:17.650Z,2.00
2022-11-23T07:26:44.598Z,1.60
2022-11-23T07:29:11.565Z,2.00
2022-11-23T07:31:38.166Z,1.90
2022-11-23T07:34:05.129Z,1.60
2022-11-23T07:36:32.168Z,1.50
2022-11-23T07:38:59.245Z,2.13
2022-11-23T07:41:27.428Z,2.77
2022-11-23T07:43:54.493Z,1.77
2022-11-23T07:46:21.675Z,2.53
2022-11-23T07:48:48.796Z,1.47
2022-11-23T07:51:16.422Z,1.70
2022-11-23T07:53:43.395Z,1.90
2022-11-23T07:56:10.471Z,2.00
2022-11-23T07:58:37.751Z,2.20
2022-11-23T08:01:04.945Z,2.27
2022-11-23T08:03:31.669Z,1.93
2022-11-23T08:05:58.781Z,1.53
2022-11-23T08:08:25.838Z,1.87
2022-11-23T08:10:54.282Z,1.50
2022-11-23T08:13:22.069Z,2.10
2022-11-23T08:15:54.991Z,1.60
2022-11-23T08:18:23.195Z,2.13
2022-11-23T08:20:49.811Z,1.40
2022-11-23T08:23:16.488Z,1.60
2022-11-23T08:25:43.162Z,1.70
2022-11-23T08:28:10.443Z,1.77
2022-11-23T08:30:37.512Z,1.53
2022-11-23T08:33:05.920Z,1.70
2022-11-23T08:35:40.355Z,1.70
2022-11-23T08:38:09.057Z,2.40
2022-11-23T08:40:37.820Z,1.53
2022-11-23T08:43:04.879Z,2.00
2022-11-23T08:45:31.961Z,1.30
2022-11-23T08:48:02.981Z,1.70
2022-11-23T08:50:30.549Z,1.67
2022-11-23T08:52:58.576Z,2.23
2022-11-23T08:55:25.939Z,2.07
2022-11-23T08:57:58.811Z,1.60
2022-11-23T09:00:26.088Z,1.40
2022-11-23T09:02:52.777Z,1.33
2022-11-23T09:05:19.929Z,1.90
2022-11-23T09:07:47.011Z,1.30
2022-11-23T09:10:18.348Z,1.30
2022-11-23T09:12:46.350Z,1.10
2022-11-23T09:15:13.458Z,1.37
2022-11-23T09:17:40.458Z,1.20
2022-11-23T09:20:07.693Z,1.50
2022-11-23T09:22:34.538Z,1.43
2022-11-23T09:25:01.226Z,1.30
2022-11-23T09:27:28.047Z,1.70
2022-11-23T09:29:54.641Z,1.27
2022-11-23T09:32:21.376Z,1.13
2022-11-23T09:34:47.994Z,1.70
2022-11-23T09:37:15.305Z,1.40
2022-11-23T09:39:41.975Z,1.30
2022-11-23T09:42:27.758Z,1.30
2022-11-23T09:45:22.565Z,1.60
2022-11-23T09:48:19.414Z,1.10
2022-11-23T09:51:01.293Z,1.30
2022-11-23T09:53:50.637Z,1.23
2022-11-23T09:56:46.125Z,1.00
2022-11-23T09:59:34.484Z,1.43
2022-11-23T10:02:01.467Z,0.90
2022-11-23T10:04:35.019Z,1.07
2022-11-23T10:07:24.976Z,1.10
2022-11-23T10:10:21.359Z,1.20
2022-11-23T10:13:02.974Z,1.30
2022-11-23T10:15:53.185Z,1.17
2022-11-23T10:18:27.507Z,0.80
2022-11-23T10:21:16.900Z,1.13
2022-11-23T10:23:55.206Z,1.23
2022-11-23T10:26:29.460Z,1.00
2022-11-23T10:28:59.589Z,1.03
2022-11-23T10:31:27.468Z,1.33
2022-11-23T10:33:56.078Z,1.37
2022-11-23T10:36:22.825Z,1.00
2022-11-23T10:38:58.473Z,0.97
2022-11-23T10:41:26.181Z,0.80
2022-11-23T10:44:02.537Z,1.37
2022-11-23T10:46:31.291Z,0.90
2022-11-23T10:49:20.080Z,1.07
2022-11-23T10:52:05.481Z,1.23
2022-11-23T10:54:37.051Z,1.13
2022-11-23T10:57:29.602Z,1.27
2022-11-23T11:00:01.963Z,0.87
2022-11-23T11:02:29.081Z,1.00
2022-11-23T11:05:53.093Z,1.13
2022-11-23T11:08:19.205Z,1.03
2022-11-23T11:10:46.896Z,1.10
2022-11-23T11:13:41.585Z,1.07
2022-11-23T11:16:31.004Z,1.10
2022-11-23T11:18:58.735Z,1.13
2022-11-23T11:21:34.768Z,1.20
2022-11-23T11:24:12.369Z,1.03
2022-11-23T11:26:57.550Z,1.40
2022-11-23T11:29:39.810Z,1.23
2022-11-23T11:32:10.942Z,1.20
2022-11-23T11:35:00.984Z,1.57
2022-11-23T11:37:35.611Z,2.10
2022-11-23T11:40:36.179Z,1.17
2022-11-23T11:43:10.378Z,1.47
2022-11-23T11:46:13.113Z,1.53
2022-11-23T11:48:37.988Z,1.40
2022-11-23T11:51:26.297Z,1.00
2022-11-23T11:54:11.650Z,1.40
2022-11-23T11:56:46.045Z,1.60
2022-11-23T11:59:34.006Z,1.10
2022-11-23T12:02:17.916Z,1.30
2022-11-23T12:05:13.669Z,2.20
2022-11-23T12:08:14.545Z,1.20
2022-11-23T12:11:01.965Z,1.63
2022-11-23T12:13:36.843Z,1.83
2022-11-23T12:16:16.476Z,1.50
2022-11-23T12:18:48.683Z,1.30
2022-11-23T12:21:37.890Z,1.50
2022-11-23T12:24:20.900Z,1.40
2022-11-23T12:27:33.519Z,1.20
2022-11-23T12:30:08.620Z,2.07
2022-11-23T12:32:44.419Z,1.73
2022-11-23T12:35:29.809Z,1.30
2022-11-23T12:38:30.286Z,1.63
2022-11-23T12:41:15.568Z,1.13
2022-11-23T12:44:00.259Z,1.33
2022-11-23T12:46:45.296Z,1.33
2022-11-23T12:49:17.864Z,1.73
2022-11-23T12:52:05.699Z,1.40
2022-11-23T12:54:48.601Z,1.77
2022-11-23T12:57:24.708Z,1.83
2022-11-23T13:00:22.943Z,1.50
2022-11-23T13:03:01.280Z,2.73
2022-11-23T13:05:56.397Z,1.90
2022-11-23T13:09:00.796Z,1.63
2022-11-23T13:12:00.065Z,2.00
2022-11-23T13:14:48.121Z,1.97
2022-11-23T13:17:25.331Z,1.67
2022-11-23T13:20:04.187Z,1.90
2022-11-23T13:22:31.728Z,1.90
2022-11-23T13:25:21.198Z,1.50
2022-11-23T13:27:50.867Z,2.30
2022-11-23T13:30:35.645Z,1.37
2022-11-23T13:33:23.603Z,2.10
2022-11-23T13:36:03.603Z,2.40
2022-11-23T13:38:42.842Z,2.00
2022-11-23T13:41:34.443Z,1.97
2022-11-23T13:44:31.782Z,2.00
2022-11-23T13:47:14.811Z,2.17
2022-11-23T13:49:47.006Z,2.00
2022-11-23T13:52:22.348Z,1.87
2022-11-23T13:55:07.342Z,1.60
2022-11-23T13:57:35.785Z,1.50
2022-11-23T14:00:41.245Z,1.30
2022-11-23T14:03:47.674Z,1.87
2022-11-23T14:06:39.248Z,2.10
2022-11-23T14:09:30.409Z,2.20
2022-11-23T14:12:16.992Z,2.03
2022-11-23T14:14:44.024Z,2.30
2022-11-23T14:17:37.799Z,1.50
2022-11-23T14:20:05.180Z,1.60
2022-11-23T14:22:45.928Z,2.00
2022-11-23T14:25:12.975Z,1.83
2022-11-23T14:27:47.217Z,1.73
2022-11-23T14:30:26.346Z,1.67
2022-11-23T14:33:13.288Z,1.93
2022-11-23T14:36:12.881Z,1.83
2022-11-23T14:39:00.603Z,2.10
2022-11-23T14:41:32.015Z,1.67
2022-11-23T14:44:01.278Z,2.17
2022-11-23T14:46:28.365Z,1.70
2022-11-23T14:49:07.273Z,1.60
2022-11-23T14:51:35.680Z,1.80
2022-11-23T14:54:09.346Z,1.73
2022-11-23T14:56:47.536Z,1.90
2022-11-23T14:59:17.154Z,1.30
2022-11-23T15:01:50.975Z,1.60
2022-11-23T15:04:26.833Z,1.83
2022-11-23T15:06:59.808Z,1.70
2022-11-23T15:09:55.817Z,1.80
2022-11-23T15:12:28.615Z,2.20
2022-11-23T15:14:59.806Z,1.63
2022-11-23T15:17:27.056Z,1.80
2022-11-23T15:20:01.246Z,1.93
2022-11-23T15:22:29.166Z,1.90
2022-11-23T15:25:09.013Z,1.73
2022-11-23T15:27:41.090Z,1.73
2022-11-23T15:30:27.207Z,2.00
2022-11-23T15:33:05.228Z,2.53
2022-11-23T15:35:34.242Z,2.30
2022-11-23T15:38:02.591Z,1.70
2022-11-23T15:40:35.695Z,1.93
2022-11-23T15:43:05.537Z,1.80
2022-11-23T15:45:41.844Z,1.30
2022-11-23T15:48:21.558Z,2.23
2022-11-23T15:50:52.367Z,1.80
2022-11-23T15:53:22.120Z,1.50
2022-11-23T15:55:49.832Z,2.00
2022-11-23T15:58:18.486Z,1.40
2022-11-23T16:00:55.642Z,1.60
2022-11-23T16:03:35.639Z,1.63
2022-11-23T16:06:11.248Z,1.40
2022-11-23T16:08:40.649Z,1.87
2022-11-23T16:11:32.226Z,1.53
2022-11-23T16:14:20.317Z,1.77
2022-11-23T16:16:58.755Z,1.60
2022-11-23T16:19:29.531Z,2.20
2022-11-23T16:22:03.987Z,1.70
2022-11-23T16:24:34.053Z,1.80
2022-11-23T16:27:11.311Z,2.20
2022-11-23T16:29:37.938Z,2.07
2022-11-23T16:32:07.102Z,2.07
2022-11-23T16:34:34.823Z,2.03
2022-11-23T16:37:03.875Z,1.93
2022-11-23T16:39:30.533Z,2.10
2022-11-23T16:41:57.574Z,1.57
2022-11-23T16:44:24.129Z,1.97
2022-11-23T16:46:51.147Z,1.67
2022-11-23T16:49:20.215Z,2.30
2022-11-23T16:51:56.215Z,2.60
2022-11-23T16:54:25.055Z,2.00
2022-11-23T16:56:52.769Z,2.50
2022-11-23T16:59:20.119Z,2.00
2022-11-23T17:01:53.982Z,2.10
2022-11-23T17:04:24.157Z,2.40
2022-11-23T17:06:51.229Z,2.30
2022-11-23T17:09:18.242Z,2.53
2022-11-23T17:11:47.457Z,1.90
2022-11-23T17:14:19.022Z,1.90
2022-11-23T17:16:47.341Z,2.60
2022-11-23T17:19:16.241Z,2.37
2022-11-23T17:21:43.445Z,1.60
2022-11-23T17:24:11.297Z,1.60
2022-11-23T17:26:42.713Z,2.17
2022-11-23T17:29:19.428Z,1.83
2022-11-23T17:31:52.008Z,2.90
2022-11-23T17:34:19.066Z,4.37
2022-11-23T17:36:47.413Z,3.70
2022-11-23T17:39:23.160Z,2.53
2022-11-23T17:41:49.899Z,1.93
2022-11-23T17:44:17.510Z,2.77
2022-11-23T17:46:45.924Z,1.90
2022-11-23T17:49:14.950Z,2.37
2022-11-23T17:51:43.044Z,1.90
2022-11-23T17:54:10.344Z,1.73
2022-11-23T17:56:38.181Z,1.70
2022-11-23T17:59:06.551Z,1.83
2022-11-23T18:01:33.216Z,1.70
2022-11-23T18:04:04.703Z,1.80
2022-11-23T18:06:31.857Z,2.30
2022-11-23T18:08:58.468Z,1.53
2022-11-23T18:11:25.141Z,1.63
2022-11-23T18:13:51.951Z,1.67
2022-11-23T18:16:20.443Z,3.83
2022-11-23T18:18:47.655Z,5.93
2022-11-23T18:21:15.011Z,3.33
2022-11-23T18:23:42.534Z,4.03
2022-11-23T18:26:14.783Z,3.40
2022-11-23T18:28:41.959Z,2.97
2022-11-23T18:31:09.059Z,3.03
2022-11-23T18:33:35.837Z,2.33
2022-11-23T18:36:05.646Z,2.00
2022-11-23T18:38:33.179Z,1.90
2022-11-23T18:41:00.180Z,2.67
2022-11-23T18:43:27.236Z,2.57
2022-11-23T18:45:54.582Z,3.53
2022-11-23T18:48:21.760Z,1.90
2022-11-23T18:50:48.806Z,2.33
2022-11-23T18:53:16.133Z,3.23
2022-11-23T18:55:42.711Z,3.10
2022-11-23T18:58:10.372Z,2.87
2022-11-23T19:00:37.004Z,3.43
2022-11-23T19:03:03.864Z,2.83
2022-11-23T19:05:35.845Z,2.83
2022-11-23T19:08:05.268Z,3.30
2022-11-23T19:10:33.617Z,2.60
2022-11-23T19:13:05.134Z,3.20
2022-11-23T19:15:33.032Z,2.77
2022-11-23T19:18:00.284Z,3.77
2022-11-23T19:20:28.468Z,4.47
2022-11-23T19:22:55.940Z,2.93
2022-11-23T19:25:22.517Z,2.90
2022-11-23T19:27:51.099Z,2.07
2022-11-23T19:30:18.067Z,2.87
2022-11-23T19:32:44.864Z,1.47
2022-11-23T19:35:11.573Z,2.00
2022-11-23T19:37:38.886Z,1.40
2022-11-23T19:40:06.128Z,2.47
2022-11-23T19:42:35.622Z,1.73
2022-11-23T19:45:02.951Z,1.70
2022-11-23T19:47:31.376Z,1.57
2022-11-23T19:49:58.994Z,1.53
2022-11-23T19:52:37.304Z,1.20
2022-11-23T19:55:13.147Z,1.73
2022-11-23T19:57:40.217Z,2.00
2022-11-23T20:00:09.276Z,1.50
2022-11-23T20:02:35.915Z,1.80
2022-11-23T20:05:02.603Z,1.30
2022-11-23T20:07:31.379Z,1.20
2022-11-23T20:09:58.036Z,1.30
2022-11-23T20:12:24.741Z,1.50
2022-11-23T20:14:51.719Z,1.57
2022-11-23T20:17:18.303Z,2.00
2022-11-23T20:19:44.964Z,1.73
2022-11-23T20:22:12.025Z,1.90
2022-11-23T20:24:39.122Z,1.50
2022-11-23T20:27:05.875Z,1.23
2022-11-23T20:29:32.936Z,1.40
2022-11-23T20:32:00.129Z,1.33
2022-11-23T20:34:27.200Z,1.40
2022-11-23T20:36:54.192Z,1.40
2022-11-23T20:39:21.561Z,1.13
2022-11-23T20:41:49.623Z,1.00
2022-11-23T20:44:16.364Z,1.30
2022-11-23T20:49:30.910Z,1.20
2022-11-23T20:51:58.164Z,1.33
2022-11-23T20:54:24.778Z,1.23
2022-11-23T20:56:51.362Z,1.67
2022-11-23T20:59:19.615Z,1.23
2022-11-23T21:01:46.719Z,1.33
2022-11-23T21:04:13.888Z,1.17
2022-11-23T21:06:40.647Z,1.20
2022-11-23T21:09:09.116Z,1.50
2022-11-23T21:11:54.754Z,1.50
2022-11-23T21:14:24.703Z,1.43
2022-11-23T21:16:56.005Z,1.70
2022-11-23T21:19:30.931Z,1.20
2022-11-23T21:21:58.945Z,1.07
2022-11-23T21:24:25.833Z,1.40
2022-11-23T21:26:52.897Z,1.50
2022-11-23T21:29:20.054Z,1.50
2022-11-23T21:31:48.698Z,1.47
2022-11-23T21:34:21.167Z,1.70
2022-11-23T21:36:48.461Z,1.77
2022-11-23T21:39:15.458Z,1.63
2022-11-23T21:41:42.871Z,1.97
2022-11-23T21:44:10.278Z,1.90
2022-11-23T21:46:40.390Z,1.70
2022-11-23T21:49:07.537Z,2.07
2022-11-23T21:51:35.230Z,1.50
2022-11-23T21:54:07.233Z,2.00
2022-11-23T21:56:34.425Z,1.70
2022-11-23T21:59:01.532Z,1.97
2022-11-23T22:01:30.842Z,2.00
2022-11-23T22:04:06.452Z,2.00
2022-11-23T22:06:33.079Z,2.00
2022-11-23T22:09:00.025Z,1.90
2022-11-23T22:11:31.997Z,1.80
2022-11-23T22:14:05.256Z,1.90
2022-11-23T22:16:34.437Z,1.90
2022-11-23T22:19:01.893Z,1.67
2022-11-23T22:21:32.637Z,2.17
2022-11-23T22:23:59.946Z,2.03
2022-11-23T22:26:27.650Z,2.07
2022-11-23T22:28:55.639Z,1.90
2022-11-23T22:31:25.787Z,1.60
2022-11-23T22:33:53.245Z,1.30
2022-11-23T22:36:22.821Z,1.70
2022-11-23T22:39:00.984Z,1.97
2022-11-23T22:41:29.731Z,1.73
2022-11-23T22:43:57.080Z,1.30
2022-11-23T22:46:24.615Z,1.67
2022-11-23T22:48:52.431Z,1.53
2022-11-23T22:51:21.545Z,1.77
2022-11-23T22:53:48.594Z,1.63
2022-11-23T22:56:19.653Z,1.90
2022-11-23T22:58:47.738Z,1.97
2022-11-23T23:01:16.913Z,2.33
2022-11-23T23:03:44.188Z,1.83
2022-11-23T23:06:22.983Z,2.03
2022-11-23T23:08:56.774Z,2.00
2022-11-23T23:11:24.744Z,2.23
2022-11-23T23:13:52.464Z,2.07
2022-11-23T23:16:19.333Z,1.77
2022-11-23T23:18:46.404Z,2.63
2022-11-23T23:21:15.675Z,1.97
2022-11-23T23:23:47.782Z,2.07
2022-11-23T23:26:17.110Z,2.13
2022-11-23T23:28:44.512Z,2.00
2022-11-23T23:31:14.079Z,1.87
2022-11-23T23:33:40.901Z,2.30
2022-11-23T23:36:10.311Z,2.17
2022-11-23T23:38:37.477Z,1.80
2022-11-23T23:41:05.484Z,1.97
2022-11-23T23:43:32.578Z,3.00
2022-11-23T23:46:01.433Z,2.23
2022-11-23T23:48:29.623Z,1.93
2022-11-23T23:50:56.933Z,2.37
2022-11-23T23:53:24.085Z,1.63
2022-11-23T23:56:02.303Z,2.63
2022-11-23T23:58:29.956Z,1.80
